createdAt,value
2018-03-17T00:01:50.537Z,23.10
2018-03-17T00:04:19.418Z,25.93
2018-03-17T00:06:49.284Z,21.57
2018-03-17T00:09:18.837Z,29.10
2018-03-17T00:11:47.692Z,26.33
2018-03-17T00:14:16.493Z,24.87
2018-03-17T00:16:45.729Z,23.43
2018-03-17T00:19:15.417Z,26.73
2018-03-17T00:21:44.297Z,26.03
2018-03-17T00:24:14.239Z,23.83
2018-03-17T00:26:43.304Z,21.30
2018-03-17T00:29:12.076Z,20.13
2018-03-17T00:31:41.900Z,24.73
2018-03-17T00:34:11.125Z,30.03
2018-03-17T00:36:40.164Z,26.43
2018-03-17T00:39:09.077Z,50.00
2018-03-17T00:41:37.988Z,43.53
2018-03-17T00:44:06.990Z,30.30
2018-03-17T00:46:36.163Z,35.20
2018-03-17T00:49:05.073Z,30.70
2018-03-17T00:51:34.881Z,30.53
2018-03-17T00:54:03.775Z,65.40
2018-03-17T00:56:32.683Z,49.63
2018-03-17T00:59:02.348Z,45.20
2018-03-17T01:01:31.223Z,57.67
2018-03-17T01:04:00.989Z,49.13
2018-03-17T01:06:29.941Z,44.80
2018-03-17T01:08:58.851Z,50.00
2018-03-17T01:11:27.969Z,60.53
2018-03-17T01:13:57.056Z,48.90
2018-03-17T01:16:26.219Z,58.13
2018-03-17T01:18:55.056Z,57.47
2018-03-17T01:21:23.873Z,52.47
2018-03-17T01:23:52.820Z,48.93
2018-03-17T01:26:22.700Z,39.70
2018-03-17T01:28:52.472Z,31.50
2018-03-17T01:31:21.269Z,25.80
2018-03-17T01:33:50.065Z,27.10
2018-03-17T01:36:19.985Z,21.70
2018-03-17T01:38:49.540Z,25.40
2018-03-17T01:41:18.438Z,24.40
2018-03-17T01:43:47.252Z,21.23
2018-03-17T01:46:16.040Z,24.17
2018-03-17T01:48:45.047Z,28.53
2018-03-17T01:51:14.887Z,21.63
2018-03-17T01:53:44.482Z,21.97
2018-03-17T01:56:13.601Z,21.63
2018-03-17T01:58:42.665Z,23.50
2018-03-17T02:01:11.589Z,27.13
2018-03-17T02:03:40.490Z,21.67
2018-03-17T02:06:10.141Z,23.40
2018-03-17T02:08:39.745Z,21.70
2018-03-17T02:11:09.276Z,21.20
2018-03-17T02:13:38.811Z,25.80
2018-03-17T02:16:07.690Z,22.17
2018-03-17T02:18:36.521Z,25.60
2018-03-17T02:21:05.662Z,20.13
2018-03-17T02:23:34.509Z,20.37
2018-03-17T02:26:03.672Z,20.50
2018-03-17T02:28:32.438Z,23.77
2018-03-17T02:31:02.196Z,39.13
2018-03-17T02:33:31.309Z,36.50
2018-03-17T02:36:00.156Z,25.00
2018-03-17T02:38:28.962Z,21.80
2018-03-17T02:40:58.614Z,28.83
2018-03-17T02:43:27.630Z,25.03
2018-03-17T02:45:56.766Z,27.60
2018-03-17T02:48:25.584Z,31.73
2018-03-17T02:50:54.698Z,75.10
2018-03-17T02:53:23.502Z,72.37
2018-03-17T02:55:53.096Z,76.23
2018-03-17T02:58:21.878Z,303.50
2018-03-17T03:00:50.725Z,180.23
2018-03-17T03:03:19.566Z,114.17
2018-03-17T03:05:49.165Z,82.47
2018-03-17T03:08:18.707Z,102.80
2018-03-17T03:10:47.772Z,104.67
2018-03-17T03:13:16.713Z,80.47
2018-03-17T03:15:45.771Z,59.53
2018-03-17T03:18:14.598Z,82.03
2018-03-17T03:20:43.639Z,82.78
2018-03-17T03:23:13.299Z,76.90
2018-03-17T03:25:42.416Z,71.73
2018-03-17T03:28:11.349Z,79.70
2018-03-17T03:30:40.528Z,93.47
2018-03-17T03:33:10.206Z,75.20
2018-03-17T03:35:39.866Z,57.88
2018-03-17T03:38:09.412Z,66.70
2018-03-17T03:40:38.275Z,53.97
2018-03-17T03:43:07.154Z,53.72
2018-03-17T03:45:36.388Z,59.00
2018-03-17T03:48:05.273Z,57.95
2018-03-17T03:50:34.170Z,58.90
2018-03-17T03:53:03.264Z,45.53
2018-03-17T03:55:32.098Z,47.75
2018-03-17T03:58:01.729Z,50.08
2018-03-17T04:00:30.722Z,38.13
2018-03-17T04:03:00.464Z,32.00
2018-03-17T04:05:29.337Z,28.67
2018-03-17T04:07:59.430Z,30.40
2018-03-17T04:10:29.124Z,30.23
2018-03-17T04:12:57.996Z,25.42
2018-03-17T04:15:26.949Z,27.73
2018-03-17T04:17:55.802Z,30.62
2018-03-17T04:20:24.776Z,51.03
2018-03-17T04:22:53.719Z,50.92
2018-03-17T04:25:23.005Z,71.45
2018-03-17T04:27:51.980Z,28.10
2018-03-17T04:30:20.965Z,57.50
2018-03-17T04:32:49.809Z,72.30
2018-03-17T04:35:18.668Z,56.53
2018-03-17T04:37:47.541Z,221.75
2018-03-17T04:40:17.680Z,157.93
2018-03-17T04:42:46.584Z,115.88
2018-03-17T04:45:15.543Z,130.30
2018-03-17T04:47:45.205Z,133.30
2018-03-17T04:50:14.046Z,137.30
2018-03-17T04:52:43.428Z,134.83
2018-03-17T04:57:47.188Z,74.50
2018-03-17T05:00:16.075Z,81.78
2018-03-17T05:02:44.897Z,95.97
2018-03-17T05:05:14.855Z,91.53
2018-03-17T05:07:43.889Z,152.43
2018-03-17T05:10:12.696Z,92.30
2018-03-17T05:12:41.617Z,127.43
2018-03-17T05:15:10.849Z,132.30
2018-03-17T05:17:40.674Z,156.90
2018-03-17T05:20:09.565Z,165.07
2018-03-17T05:22:38.577Z,147.23
2018-03-17T05:25:07.676Z,97.37
2018-03-17T05:27:36.673Z,106.90
2018-03-17T05:30:05.574Z,78.03
2018-03-17T05:32:34.664Z,57.67
2018-03-17T05:35:03.506Z,71.07
2018-03-17T05:37:33.249Z,63.50
2018-03-17T05:40:02.122Z,39.60
2018-03-17T05:42:30.994Z,44.87
2018-03-17T05:45:00.071Z,49.33
2018-03-17T05:47:29.022Z,48.20
2018-03-17T05:49:57.948Z,28.90
2018-03-17T05:52:26.737Z,48.87
2018-03-17T05:54:55.612Z,37.50
2018-03-17T05:57:24.634Z,41.13
2018-03-17T05:59:53.669Z,44.63
2018-03-17T06:02:22.533Z,31.00
2018-03-17T06:04:51.394Z,32.37
2018-03-17T06:07:20.238Z,31.50
2018-03-17T06:09:49.411Z,26.90
2018-03-17T06:12:18.278Z,39.50
2018-03-17T06:14:48.142Z,26.20
2018-03-17T06:17:17.071Z,57.57
2018-03-17T06:19:45.975Z,51.13
2018-03-17T06:22:14.912Z,62.17
2018-03-17T06:24:43.791Z,60.83
2018-03-17T06:27:12.682Z,59.03
2018-03-17T06:29:41.529Z,32.07
2018-03-17T06:32:10.376Z,29.70
2018-03-17T06:34:39.297Z,56.27
2018-03-17T06:37:08.336Z,41.20
2018-03-17T06:39:37.221Z,50.53
2018-03-17T06:42:06.777Z,28.20
2018-03-17T06:44:35.747Z,47.90
2018-03-17T06:47:04.662Z,54.03
2018-03-17T06:49:33.737Z,76.27
2018-03-17T06:52:03.021Z,81.80
2018-03-17T06:54:31.907Z,31.77
2018-03-17T06:57:00.882Z,35.23
2018-03-17T06:59:29.830Z,94.30
2018-03-17T07:01:58.681Z,51.77
2018-03-17T07:04:27.644Z,42.60
2018-03-17T07:06:57.325Z,50.33
2018-03-17T07:09:27.007Z,49.30
2018-03-17T07:11:57.337Z,102.07
2018-03-17T07:14:26.997Z,87.93
2018-03-17T07:16:56.837Z,88.77
2018-03-17T07:19:26.482Z,108.57
2018-03-17T07:21:55.531Z,63.57
2018-03-17T07:24:24.777Z,54.07
2018-03-17T07:26:53.607Z,41.47
2018-03-17T07:29:22.516Z,66.07
2018-03-17T07:31:52.305Z,64.90
2018-03-17T07:34:21.296Z,27.27
2018-03-17T07:36:50.960Z,64.90
2018-03-17T07:39:19.806Z,32.00
2018-03-17T07:41:49.185Z,78.10
2018-03-17T07:44:18.837Z,13.20
2018-03-17T07:46:47.765Z,62.30
2018-03-17T07:49:17.438Z,52.87
2018-03-17T07:51:46.384Z,37.43
2018-03-17T07:54:15.397Z,37.43
2018-03-17T07:56:44.261Z,42.00
2018-03-17T07:59:14.099Z,34.87
2018-03-17T08:01:43.754Z,33.87
2018-03-17T08:04:12.812Z,32.30
2018-03-17T08:06:42.684Z,35.60
2018-03-17T08:09:12.250Z,38.00
2018-03-17T08:11:41.166Z,25.03
2018-03-17T08:14:10.921Z,19.63
2018-03-17T08:16:40.605Z,56.90
2018-03-17T08:19:09.388Z,36.73
2018-03-17T08:21:39.107Z,38.97
2018-03-17T08:24:08.314Z,31.13
2018-03-17T08:26:37.175Z,25.97
2018-03-17T08:29:06.033Z,44.47
2018-03-17T08:31:35.900Z,29.33
2018-03-17T08:47:06.608Z,45.83
2018-03-17T08:55:37.239Z,27.30
2018-03-17T08:58:06.492Z,50.00
2018-03-17T09:00:35.611Z,56.23
2018-03-17T09:03:05.485Z,37.03
2018-03-17T09:05:34.373Z,33.53
2018-03-17T09:08:03.450Z,29.03
2018-03-17T09:10:32.519Z,28.03
2018-03-17T09:13:01.609Z,28.87
2018-03-17T09:15:30.904Z,29.53
2018-03-17T09:18:00.758Z,24.80
2018-03-17T09:20:30.008Z,26.50
2018-03-17T09:23:01.504Z,38.80
2018-03-17T09:25:30.750Z,37.60
2018-03-17T09:28:00.514Z,27.43
2018-03-17T09:30:29.505Z,31.80
2018-03-17T09:32:58.421Z,25.27
2018-03-17T09:35:27.351Z,25.57
2018-03-17T09:37:57.026Z,27.53
2018-03-17T09:40:25.951Z,23.70
2018-03-17T09:42:55.614Z,24.63
2018-03-17T09:45:26.264Z,20.77
2018-03-17T09:47:56.239Z,19.97
2018-03-17T09:50:25.530Z,30.47
2018-03-17T09:52:54.394Z,19.40
2018-03-17T09:55:24.034Z,25.33
2018-03-17T09:57:53.842Z,28.30
2018-03-17T10:00:24.251Z,30.57
2018-03-17T10:02:53.820Z,63.13
2018-03-17T10:05:23.502Z,58.70
2018-03-17T10:07:52.379Z,54.50
2018-03-17T10:10:21.262Z,32.43
2018-03-17T10:12:50.892Z,44.30
2018-03-17T10:15:20.045Z,31.47
2018-03-17T10:17:50.591Z,26.93
2018-03-17T10:20:19.812Z,27.33
2018-03-17T10:22:48.693Z,17.63
2018-03-17T10:25:18.210Z,12.47
2018-03-17T10:27:47.189Z,28.47
2018-03-17T10:30:16.421Z,23.70
2018-03-17T10:32:45.327Z,19.40
2018-03-17T10:35:14.261Z,44.80
2018-03-17T10:37:43.180Z,39.80
2018-03-17T10:40:12.954Z,22.23
2018-03-17T10:42:42.397Z,53.33
2018-03-17T10:45:11.588Z,32.33
2018-03-17T10:47:40.511Z,66.83
2018-03-17T10:50:10.418Z,27.90
2018-03-17T10:52:39.358Z,28.83
2018-03-17T10:55:08.506Z,83.37
2018-03-17T10:57:37.394Z,24.07
2018-03-17T11:00:07.009Z,31.13
2018-03-17T11:02:42.121Z,16.70
2018-03-17T11:05:11.186Z,26.03
2018-03-17T11:07:41.016Z,24.97
2018-03-17T11:10:10.029Z,27.60
2018-03-17T11:12:38.970Z,33.47
2018-03-17T11:15:07.830Z,28.13
2018-03-17T11:17:36.673Z,26.27
2018-03-17T11:20:06.390Z,21.87
2018-03-17T11:22:35.230Z,30.33
2018-03-17T11:25:04.274Z,33.23
2018-03-17T11:27:33.390Z,52.03
2018-03-17T11:30:02.433Z,33.93
2018-03-17T11:32:31.443Z,76.20
2018-03-17T11:35:00.421Z,76.33
2018-03-17T11:37:30.250Z,42.83
2018-03-17T11:39:59.962Z,43.37
2018-03-17T11:42:29.052Z,40.07
2018-03-17T11:44:57.941Z,36.53
2018-03-17T11:47:27.871Z,26.70
2018-03-17T11:49:57.678Z,29.73
2018-03-17T11:52:27.393Z,45.77
2018-03-17T11:54:56.973Z,44.13
2018-03-17T11:57:26.715Z,27.63
2018-03-17T11:59:55.603Z,27.43
2018-03-17T12:02:24.517Z,34.20
2018-03-17T12:04:53.438Z,39.37
2018-03-17T12:07:22.322Z,37.90
2018-03-17T12:09:52.281Z,20.43
2018-03-17T12:12:21.935Z,29.87
2018-03-17T12:14:51.871Z,20.43
2018-03-17T12:17:20.897Z,24.50
2018-03-17T12:19:49.897Z,36.63
2018-03-17T12:22:19.707Z,33.10
2018-03-17T12:24:48.691Z,25.87
2018-03-17T12:27:18.608Z,20.50
2018-03-17T12:29:47.507Z,27.17
2018-03-17T12:32:16.594Z,31.83
2018-03-17T12:34:46.210Z,28.30
2018-03-17T12:37:15.594Z,31.83
2018-03-17T12:39:45.122Z,25.40
2018-03-17T12:42:17.796Z,41.17
2018-03-17T12:44:50.331Z,30.73
2018-03-17T12:47:21.284Z,23.50
2018-03-17T12:49:51.865Z,32.90
2018-03-17T12:52:23.922Z,22.30
2018-03-17T12:54:54.033Z,26.20
2018-03-17T12:57:24.677Z,24.50
2018-03-17T12:59:55.837Z,31.43
2018-03-17T13:02:28.112Z,17.87
2018-03-17T13:05:00.931Z,87.57
2018-03-17T13:07:30.214Z,28.30
2018-03-17T13:09:59.458Z,68.60
2018-03-17T13:12:28.394Z,34.20
2018-03-17T13:14:57.444Z,21.53
2018-03-17T13:17:27.286Z,20.03
2018-03-17T13:19:56.149Z,22.40
2018-03-17T13:22:25.119Z,18.53
2018-03-17T13:24:54.071Z,18.10
2018-03-17T13:27:35.101Z,30.70
2018-03-17T13:30:04.417Z,22.67
2018-03-17T13:32:45.056Z,30.17
2018-03-17T13:35:14.866Z,17.53
2018-03-17T13:37:44.188Z,23.10
2018-03-17T13:40:25.964Z,34.53
2018-03-17T13:42:54.741Z,23.60
2018-03-17T13:45:24.023Z,30.97
2018-03-17T13:47:52.928Z,40.37
2018-03-17T13:50:21.995Z,30.43
2018-03-17T13:52:51.058Z,35.80
2018-03-17T13:55:20.079Z,30.77
2018-03-17T13:57:48.931Z,30.53
2018-03-17T14:00:17.809Z,33.70
2018-03-17T14:05:47.799Z,19.73
2018-03-17T14:08:17.921Z,53.97
2018-03-17T14:10:46.887Z,38.37
2018-03-17T14:13:15.734Z,33.50
2018-03-17T14:15:44.612Z,34.83
2018-03-17T14:18:13.544Z,38.77
2018-03-17T14:20:42.489Z,36.27
2018-03-17T14:23:12.197Z,35.80
2018-03-17T14:25:41.930Z,39.43
2018-03-17T14:28:11.815Z,27.07
2018-03-17T14:30:41.604Z,38.23
2018-03-17T14:33:10.566Z,28.07
2018-03-17T14:35:40.221Z,49.37
2018-03-17T14:38:09.918Z,28.77
2018-03-17T14:40:38.781Z,35.17
2018-03-17T14:43:07.971Z,30.43
2018-03-17T14:45:36.940Z,28.20
2018-03-17T14:48:06.841Z,40.37
2018-03-17T14:50:35.664Z,32.50
2018-03-17T14:53:05.301Z,25.00
2018-03-17T14:55:35.412Z,34.07
2018-03-17T14:58:04.433Z,32.60
2018-03-17T15:00:33.368Z,26.73
2018-03-17T15:03:03.958Z,36.57
2018-03-17T15:05:32.924Z,44.53
2018-03-17T15:08:02.239Z,34.20
2018-03-17T15:10:32.903Z,29.87
2018-03-17T15:13:02.059Z,28.07
2018-03-17T15:15:31.091Z,34.43
2018-03-17T15:18:00.652Z,41.33
2018-03-17T15:20:29.925Z,38.37
2018-03-17T15:22:58.774Z,26.93
2018-03-17T15:25:27.754Z,30.13
2018-03-17T15:27:57.582Z,39.50
2018-03-17T15:30:26.839Z,21.87
2018-03-17T15:32:55.645Z,39.77
2018-03-17T15:35:24.758Z,26.63
2018-03-17T15:37:53.785Z,36.60
2018-03-17T15:40:23.565Z,29.53
2018-03-17T15:42:52.545Z,27.97
2018-03-17T15:45:21.534Z,25.57
2018-03-17T15:47:52.482Z,27.30
2018-03-17T15:50:21.379Z,32.53
2018-03-17T15:52:50.370Z,26.07
2018-03-17T15:55:19.688Z,26.80
2018-03-17T15:57:48.557Z,26.20
2018-03-17T16:00:17.463Z,20.20
2018-03-17T16:02:48.556Z,29.23
2018-03-17T16:05:17.843Z,23.43
2018-03-17T16:07:46.713Z,34.20
2018-03-17T16:10:15.749Z,40.07
2018-03-17T16:12:45.680Z,51.50
2018-03-17T16:15:14.728Z,87.47
2018-03-17T16:17:43.854Z,41.47
2018-03-17T16:20:12.925Z,35.10
2018-03-17T16:22:42.906Z,39.27
2018-03-17T16:25:12.532Z,41.27
2018-03-17T16:27:42.229Z,58.97
2018-03-17T16:30:11.078Z,64.43
2018-03-17T16:32:41.179Z,46.40
2018-03-17T16:35:10.323Z,34.23
2018-03-17T16:37:39.237Z,57.33
2018-03-17T16:40:08.460Z,33.77
2018-03-17T16:42:37.823Z,31.43
2018-03-17T16:45:06.793Z,69.07
2018-03-17T16:47:36.984Z,58.63
2018-03-17T16:50:05.901Z,53.87
2018-03-17T16:52:34.898Z,161.07
2018-03-17T16:55:03.865Z,55.77
2018-03-17T16:57:32.759Z,50.77
2018-03-17T17:00:01.923Z,60.57
2018-03-17T17:02:31.617Z,51.63
2018-03-17T17:05:00.830Z,52.17
2018-03-17T17:07:29.895Z,43.37
2018-03-17T17:09:58.786Z,57.47
2018-03-17T17:12:27.925Z,41.80
2018-03-17T17:14:56.966Z,85.60
2018-03-17T17:17:26.358Z,53.77
2018-03-17T17:19:56.531Z,52.23
2018-03-17T17:22:27.113Z,41.10
2018-03-17T17:24:56.907Z,56.00
2018-03-17T17:27:25.774Z,42.90
2018-03-17T17:29:55.229Z,50.87
2018-03-17T17:32:25.301Z,58.23
2018-03-17T17:34:54.234Z,56.37
2018-03-17T17:37:23.555Z,48.10
2018-03-17T17:39:53.666Z,38.40
2018-03-17T17:42:22.497Z,44.93
2018-03-17T17:44:51.361Z,35.90
2018-03-17T17:47:20.319Z,33.47
2018-03-17T17:49:49.217Z,39.30
2018-03-17T17:52:19.154Z,39.90
2018-03-17T17:54:48.104Z,47.17
2018-03-17T17:57:17.758Z,29.07
2018-03-17T17:59:46.598Z,29.47
2018-03-17T18:02:15.474Z,28.27
2018-03-17T18:04:45.173Z,30.13
2018-03-17T18:07:15.760Z,30.23
2018-03-17T18:09:44.760Z,26.30
2018-03-17T18:12:13.617Z,31.40
2018-03-17T18:14:48.672Z,25.83
2018-03-17T18:17:20.490Z,32.63
2018-03-17T18:19:51.167Z,47.43
2018-03-17T18:22:21.696Z,37.60
2018-03-17T18:24:51.238Z,41.37
2018-03-17T18:27:20.605Z,39.87
2018-03-17T18:29:51.631Z,22.23
2018-03-17T18:32:22.555Z,32.80
2018-03-17T18:34:52.575Z,26.20
2018-03-17T18:37:32.928Z,43.13
2018-03-17T18:40:17.082Z,38.97
2018-03-17T18:42:59.717Z,25.70
2018-03-17T18:45:44.306Z,32.57
2018-03-17T18:48:31.175Z,38.37
2018-03-17T18:51:13.181Z,68.23
2018-03-17T18:53:59.087Z,34.57
2018-03-17T18:56:32.873Z,54.60
2018-03-17T18:59:11.902Z,32.97
2018-03-17T19:01:50.914Z,31.63
2018-03-17T19:04:21.039Z,36.67
2018-03-17T19:06:52.581Z,31.57
2018-03-17T19:09:22.050Z,23.97
2018-03-17T19:11:51.770Z,29.33
2018-03-17T19:14:21.817Z,25.50
2018-03-17T19:16:51.645Z,24.60
2018-03-17T19:19:21.261Z,24.30
2018-03-17T19:21:51.460Z,36.30
2018-03-17T19:24:20.788Z,39.67
2018-03-17T19:26:52.527Z,35.90
2018-03-17T19:29:23.305Z,37.23
2018-03-17T19:31:52.443Z,43.37
2018-03-17T19:34:21.495Z,32.10
2018-03-17T19:36:50.446Z,31.87
2018-03-17T19:39:20.248Z,38.40
2018-03-17T19:41:49.086Z,38.83
2018-03-17T19:44:18.038Z,24.63
2018-03-17T19:46:47.687Z,36.47
2018-03-17T19:49:16.531Z,35.87
2018-03-17T19:51:45.425Z,29.63
2018-03-17T19:54:15.581Z,31.77
2018-03-17T19:56:44.596Z,27.03
2018-03-17T19:59:13.389Z,35.07
2018-03-17T20:01:42.280Z,30.77
2018-03-17T20:04:11.144Z,32.93
2018-03-17T20:06:40.417Z,34.90
2018-03-17T20:09:10.140Z,26.53
2018-03-17T20:11:39.011Z,33.30
2018-03-17T20:14:08.880Z,27.13
2018-03-17T20:16:37.745Z,35.37
2018-03-17T20:19:06.718Z,52.20
2018-03-17T20:21:36.407Z,22.77
2018-03-17T20:24:05.686Z,41.43
2018-03-17T20:26:35.677Z,52.90
2018-03-17T20:29:04.695Z,48.77
2018-03-17T20:31:34.630Z,23.60
2018-03-17T20:34:05.791Z,36.07
2018-03-17T20:36:38.904Z,80.67
2018-03-17T20:39:08.616Z,125.03
2018-03-17T20:41:37.461Z,35.47
2018-03-17T20:44:06.557Z,32.30
2018-03-17T20:46:45.746Z,50.03
2018-03-17T20:49:14.698Z,48.20
2018-03-17T20:51:44.305Z,34.77
2018-03-17T20:54:14.002Z,26.93
2018-03-17T20:56:43.694Z,28.80
2018-03-17T20:59:16.613Z,30.13
2018-03-17T21:01:50.202Z,20.40
2018-03-17T21:04:19.717Z,29.23
2018-03-17T21:06:48.714Z,20.80
2018-03-17T21:09:18.466Z,22.83
2018-03-17T21:11:47.397Z,23.30
2018-03-17T21:14:16.373Z,28.03
2018-03-17T21:16:45.295Z,19.07
2018-03-17T21:19:14.274Z,26.53
2018-03-17T21:21:44.019Z,25.57
2018-03-17T21:24:13.271Z,35.37
2018-03-17T21:26:43.232Z,26.90
2018-03-17T21:29:12.318Z,64.33
2018-03-17T21:31:41.498Z,27.93
2018-03-17T21:34:11.665Z,30.37
2018-03-17T21:36:41.447Z,36.57
2018-03-17T21:39:11.336Z,30.47
2018-03-17T21:41:40.994Z,38.40
2018-03-17T21:44:09.841Z,33.43
2018-03-17T21:46:38.808Z,29.90
2018-03-17T21:49:07.870Z,40.47
2018-03-17T21:51:37.536Z,42.33
2018-03-17T21:54:06.546Z,52.43
2018-03-17T21:56:36.155Z,43.37
2018-03-17T21:59:05.808Z,51.90
2018-03-17T22:01:34.665Z,48.50
2018-03-17T22:04:03.515Z,55.57
2018-03-17T22:06:32.363Z,54.77
2018-03-17T22:09:01.222Z,100.23
2018-03-17T22:11:30.315Z,81.40
2018-03-17T22:14:00.329Z,83.00
2018-03-17T22:16:29.945Z,38.43
2018-03-17T22:18:59.569Z,138.23
2018-03-17T22:21:28.351Z,53.93
2018-03-17T22:23:57.200Z,48.17
2018-03-17T22:26:26.046Z,121.47
2018-03-17T22:28:54.913Z,37.67
2018-03-17T22:31:24.531Z,83.60
2018-03-17T22:33:53.314Z,101.50
2018-03-17T22:51:50.850Z,49.83
2018-03-17T22:54:19.757Z,31.47
2018-03-17T22:56:49.220Z,39.50
2018-03-17T22:59:18.557Z,30.17
2018-03-17T23:01:47.591Z,36.77
2018-03-17T23:04:16.750Z,41.20
2018-03-17T23:06:45.523Z,36.27
2018-03-17T23:09:14.475Z,33.70
2018-03-17T23:11:43.278Z,55.27
2018-03-17T23:14:12.327Z,65.33
2018-03-17T23:16:41.822Z,62.10
2018-03-17T23:19:10.747Z,40.50
2018-03-17T23:21:40.248Z,40.37
2018-03-17T23:24:09.758Z,35.13
2018-03-17T23:26:39.065Z,34.53
2018-03-17T23:29:07.872Z,39.07
2018-03-17T23:31:36.733Z,29.93
2018-03-17T23:34:06.233Z,35.93
2018-03-17T23:36:34.948Z,35.70
2018-03-17T23:39:03.819Z,36.47
2018-03-17T23:41:32.619Z,35.83
2018-03-17T23:44:01.389Z,36.53
2018-03-17T23:46:30.238Z,47.80
2018-03-17T23:48:59.143Z,24.13
2018-03-17T23:51:28.002Z,35.47
2018-03-17T23:53:56.850Z,46.97
2018-03-17T23:56:25.680Z,48.60
2018-03-17T23:58:54.366Z,43.40
